Time;durP1;ratioP1;P1;durP2;ratioP2;P2;SDS_P1;SDS_P2;PMS_P1;PMS_P2;Temp;Humidity;BMP_temperature;BMP_pressure;BME280_temperature;BME280_humidity;BME280_pressure;Samples;Min_cycle;Max_cycle;Signal;HPM_P1;HPM_P2
2023/07/15 00:00:38;;;;;;;5.75;3.00;;;;;;;;;;4952930;28;20196;-71
2023/07/15 00:03:03;;;;;;;5.72;2.35;;;;;;;;;;4952965;28;20716;-71
2023/07/15 00:05:35;;;;;;;5.00;2.55;;;;;;;;;;4953427;28;20212;-71
2023/07/15 00:08:00;;;;;;;6.32;2.60;;;;;;;;;;4952987;28;20194;-71
2023/07/15 00:10:25;;;;;;;3.80;2.50;;;;;;;;;;4951982;28;20192;-71
2023/07/15 00:12:50;;;;;;;4.28;2.30;;;;;;;;;;4949839;28;20181;-71
2023/07/15 00:15:15;;;;;;;4.60;2.20;;;;;;;;;;4952591;28;20370;-72
2023/07/15 00:17:41;;;;;;;7.03;2.38;;;;;;;;;;4951452;28;20295;-72
2023/07/15 00:20:07;;;;;;;3.35;2.85;;;;;;;;;;4953469;28;20184;-72
2023/07/15 00:22:34;;;;;;;6.32;2.60;;;;;;;;;;4952201;28;20643;-72
2023/07/15 00:24:59;;;;;;;3.75;2.17;;;;;;;;;;4966053;23;21151;-66
2023/07/15 00:27:25;;;;;;;5.90;2.25;;;;;;;;;;4958662;28;20188;-67
2023/07/15 00:29:50;;;;;;;3.47;2.33;;;;;;;;;;4957027;28;20244;-68
2023/07/15 00:32:16;;;;;;;4.88;2.30;;;;;;;;;;4951516;28;20184;-68
2023/07/15 00:34:41;;;;;;;3.53;2.15;;;;;;;;;;4950162;28;20188;-68
2023/07/15 00:37:07;;;;;;;3.80;2.10;;;;;;;;;;4934446;28;20216;-67
2023/07/15 00:39:32;;;;;;;3.08;2.30;;;;;;;;;;4932558;29;20185;-68
2023/07/15 00:41:59;;;;;;;5.38;2.33;;;;;;;;;;4933994;29;20184;-68
2023/07/15 00:44:24;;;;;;;5.90;2.40;;;;;;;;;;4931000;29;20208;-68
2023/07/15 00:46:57;;;;;;;1.98;1.75;;;;;;;;;;4931532;28;20209;-68
2023/07/15 00:49:23;;;;;;;4.03;2.50;;;;;;;;;;4934300;29;20196;-68
2023/07/15 00:51:55;;;;;;;2.63;1.90;;;;;;;;;;4932569;28;20193;-68
2023/07/15 00:54:21;;;;;;;2.72;1.90;;;;;;;;;;4934743;29;20196;-67
2023/07/15 00:56:46;;;;;;;3.05;1.60;;;;;;;;;;4937086;28;20242;-67
2023/07/15 00:59:13;;;;;;;6.10;2.10;;;;;;;;;;4936496;28;20184;-67
2023/07/15 01:01:38;;;;;;;5.65;2.08;;;;;;;;;;4939630;28;20189;-67
2023/07/15 01:04:03;;;;;;;4.38;2.63;;;;;;;;;;4942925;29;20686;-67
2023/07/15 01:06:29;;;;;;;7.60;2.20;;;;;;;;;;4942364;28;20706;-67
2023/07/15 01:08:54;;;;;;;2.28;1.70;;;;;;;;;;4942069;29;20188;-68
2023/07/15 01:11:19;;;;;;;4.40;2.53;;;;;;;;;;4941825;29;20196;-68
2023/07/15 01:13:45;;;;;;;4.82;2.30;;;;;;;;;;4940842;29;20192;-67
2023/07/15 01:16:10;;;;;;;5.90;1.80;;;;;;;;;;4940651;28;20220;-67
2023/07/15 01:18:35;;;;;;;3.88;1.98;;;;;;;;;;4937745;29;20697;-68
2023/07/15 01:21:01;;;;;;;5.53;2.75;;;;;;;;;;4933138;29;20253;-68
2023/07/15 01:23:27;;;;;;;3.65;1.70;;;;;;;;;;4937138;28;20241;-68
2023/07/15 01:25:52;;;;;;;6.32;1.75;;;;;;;;;;4940609;28;20311;-67
2023/07/15 01:28:18;;;;;;;5.15;1.83;;;;;;;;;;4938626;29;20235;-67
2023/07/15 01:30:43;;;;;;;5.20;1.85;;;;;;;;;;4935287;29;20185;-67
2023/07/15 01:33:09;;;;;;;6.22;2.17;;;;;;;;;;4931326;28;20197;-66
2023/07/15 01:35:35;;;;;;;3.63;2.20;;;;;;;;;;4932735;28;20208;-67
2023/07/15 01:38:00;;;;;;;6.63;2.13;;;;;;;;;;4933877;29;20212;-67
2023/07/15 01:40:25;;;;;;;4.00;2.20;;;;;;;;;;4932460;29;20236;-67
2023/07/15 01:42:50;;;;;;;4.60;1.70;;;;;;;;;;4931416;29;20365;-67
2023/07/15 01:45:15;;;;;;;6.68;2.50;;;;;;;;;;4933210;28;20444;-67
2023/07/15 01:47:41;;;;;;;3.53;2.13;;;;;;;;;;4925814;29;20968;-67
2023/07/15 01:50:06;;;;;;;6.38;2.20;;;;;;;;;;4931672;28;20192;-67
2023/07/15 01:52:32;;;;;;;6.00;1.63;;;;;;;;;;4928619;29;20189;-68
2023/07/15 01:54:57;;;;;;;3.13;1.77;;;;;;;;;;4932162;28;20563;-66
2023/07/15 01:57:22;;;;;;;4.97;2.05;;;;;;;;;;4933030;29;20200;-66
2023/07/15 01:59:48;;;;;;;3.08;2.03;;;;;;;;;;4932510;29;20226;-67
2023/07/15 02:02:13;;;;;;;6.13;2.60;;;;;;;;;;4940227;29;20232;-67
2023/07/15 02:04:38;;;;;;;5.88;2.10;;;;;;;;;;4939717;28;20193;-68
2023/07/15 02:07:04;;;;;;;3.83;2.20;;;;;;;;;;4937951;29;20193;-69
2023/07/15 02:09:29;;;;;;;3.92;2.30;;;;;;;;;;4939300;29;20228;-67
2023/07/15 02:11:54;;;;;;;2.85;2.20;;;;;;;;;;4937418;28;20193;-67
2023/07/15 02:14:20;;;;;;;3.40;1.90;;;;;;;;;;4939623;29;20189;-67
2023/07/15 02:16:45;;;;;;;13.05;3.28;;;;;;;;;;4939371;28;20636;-67
2023/07/15 02:19:10;;;;;;;2.50;1.80;;;;;;;;;;4936024;29;21084;-67
2023/07/15 02:21:35;;;;;;;3.72;2.20;;;;;;;;;;4938342;29;20184;-66
2023/07/15 02:24:01;;;;;;;3.63;2.05;;;;;;;;;;4933885;28;20761;-67
2023/07/15 02:26:27;;;;;;;2.50;2.10;;;;;;;;;;4938258;28;20239;-67
2023/07/15 02:28:53;;;;;;;4.10;2.15;;;;;;;;;;4938631;29;20288;-67
2023/07/15 02:31:18;;;;;;;4.43;2.22;;;;;;;;;;4933148;29;20189;-67
2023/07/15 02:33:44;;;;;;;5.75;2.35;;;;;;;;;;4930847;29;20189;-67
2023/07/15 02:36:09;;;;;;;3.80;2.50;;;;;;;;;;4935171;28;20219;-68
2023/07/15 02:38:35;;;;;;;3.78;2.47;;;;;;;;;;4930563;29;20186;-68
2023/07/15 02:41:00;;;;;;;5.28;2.63;;;;;;;;;;4930820;29;20188;-67
2023/07/15 02:43:25;;;;;;;13.32;2.78;;;;;;;;;;4934973;29;20185;-68
2023/07/15 02:45:51;;;;;;;4.15;2.72;;;;;;;;;;4933427;28;20213;-68
2023/07/15 02:48:16;;;;;;;3.40;2.47;;;;;;;;;;4927783;29;20189;-68
2023/07/15 02:50:41;;;;;;;2.72;2.38;;;;;;;;;;4927941;29;20185;-68
2023/07/15 02:53:06;;;;;;;4.60;2.90;;;;;;;;;;4930570;29;20665;-66
2023/07/15 02:55:32;;;;;;;5.03;2.45;;;;;;;;;;4932063;28;21120;-67
2023/07/15 02:57:57;;;;;;;5.43;2.78;;;;;;;;;;4929589;29;20188;-67
2023/07/15 03:00:22;;;;;;;6.47;2.92;;;;;;;;;;4929004;28;20228;-66
2023/07/15 03:02:48;;;;;;;3.28;2.60;;;;;;;;;;4930758;29;20771;-66
2023/07/15 03:05:13;;;;;;;3.28;2.55;;;;;;;;;;4938201;28;20738;-67
2023/07/15 03:07:43;;;;;;;6.32;3.35;;;;;;;;;;4939006;29;20819;-68
2023/07/15 03:10:09;;;;;;;6.80;3.15;;;;;;;;;;4939425;28;20181;-68
2023/07/15 03:12:34;;;;;;;6.00;3.22;;;;;;;;;;4937222;29;20192;-67
2023/07/15 03:14:59;;;;;;;3.33;2.70;;;;;;;;;;4937703;28;20572;-68
2023/07/15 03:17:24;;;;;;;3.92;3.10;;;;;;;;;;4930321;28;20219;-67
2023/07/15 03:19:50;;;;;;;2.75;2.42;;;;;;;;;;4929796;29;20241;-67
2023/07/15 03:22:15;;;;;;;4.63;2.85;;;;;;;;;;4933500;29;20181;-67
2023/07/15 03:24:40;;;;;;;2.72;2.20;;;;;;;;;;4934070;28;20191;-68
2023/07/15 03:27:05;;;;;;;4.20;2.55;;;;;;;;;;4938368;29;20185;-67
2023/07/15 03:29:31;;;;;;;4.25;2.90;;;;;;;;;;4935065;29;20877;-67
2023/07/15 03:31:56;;;;;;;5.93;2.45;;;;;;;;;;4937103;29;20275;-67
2023/07/15 03:34:21;;;;;;;3.70;2.75;;;;;;;;;;4937460;29;20679;-68
2023/07/15 03:36:46;;;;;;;2.85;2.55;;;;;;;;;;4938236;28;20246;-68
2023/07/15 03:39:12;;;;;;;4.18;2.40;;;;;;;;;;4936221;29;20200;-68
2023/07/15 03:41:37;;;;;;;6.35;2.95;;;;;;;;;;4936625;29;20177;-67
2023/07/15 03:44:03;;;;;;;4.57;2.67;;;;;;;;;;4936202;29;20188;-67
2023/07/15 03:46:28;;;;;;;4.10;2.70;;;;;;;;;;4938068;28;20699;-67
2023/07/15 03:48:53;;;;;;;4.88;3.15;;;;;;;;;;4932127;29;20193;-67
2023/07/15 03:51:18;;;;;;;3.83;2.92;;;;;;;;;;4929816;29;20201;-67
2023/07/15 03:53:44;;;;;;;7.28;3.00;;;;;;;;;;4930163;28;20276;-67
2023/07/15 03:56:09;;;;;;;3.70;2.40;;;;;;;;;;4931020;29;20212;-67
2023/07/15 03:58:34;;;;;;;4.60;2.65;;;;;;;;;;4931021;28;20196;-67
2023/07/15 04:00:59;;;;;;;4.75;2.60;;;;;;;;;;4930069;29;20276;-68
2023/07/15 04:03:25;;;;;;;2.45;2.20;;;;;;;;;;4933527;29;20224;-68
2023/07/15 04:05:50;;;;;;;5.68;2.85;;;;;;;;;;4933333;28;20860;-68
2023/07/15 04:08:15;;;;;;;3.92;2.42;;;;;;;;;;4933031;29;20907;-67
2023/07/15 04:10:40;;;;;;;3.45;2.83;;;;;;;;;;4930909;29;20181;-68
2023/07/15 04:13:06;;;;;;;8.70;2.35;;;;;;;;;;4929839;28;20957;-67
2023/07/15 04:15:31;;;;;;;6.80;2.95;;;;;;;;;;4934866;28;20780;-68
2023/07/15 04:17:56;;;;;;;3.35;2.10;;;;;;;;;;4940388;28;20275;-68
2023/07/15 04:20:21;;;;;;;4.25;2.63;;;;;;;;;;4941337;29;20203;-68
2023/07/15 04:22:47;;;;;;;3.95;2.15;;;;;;;;;;4941264;29;20189;-66
2023/07/15 04:25:12;;;;;;;7.82;2.42;;;;;;;;;;4941929;28;20213;-67
2023/07/15 04:27:38;;;;;;;7.38;2.28;;;;;;;;;;4941338;29;20365;-67
2023/07/15 04:30:03;;;;;;;3.75;2.40;;;;;;;;;;4938988;29;20909;-67
2023/07/15 04:32:29;;;;;;;3.63;2.40;;;;;;;;;;4941486;29;20190;-67
2023/07/15 04:34:54;;;;;;;3.28;2.28;;;;;;;;;;4941268;28;20710;-67
2023/07/15 04:37:20;;;;;;;3.28;2.45;;;;;;;;;;4938267;29;21015;-67
2023/07/15 04:39:45;;;;;;;3.28;2.20;;;;;;;;;;4941059;29;20264;-66
2023/07/15 04:42:10;;;;;;;4.28;2.00;;;;;;;;;;4940580;29;20989;-67
2023/07/15 04:44:36;;;;;;;5.10;2.10;;;;;;;;;;4939856;28;20185;-67
2023/07/15 04:47:01;;;;;;;3.25;2.17;;;;;;;;;;4941523;29;20196;-67
2023/07/15 04:49:26;;;;;;;3.30;1.90;;;;;;;;;;4935795;29;20775;-67
2023/07/15 04:51:51;;;;;;;4.47;2.35;;;;;;;;;;4940297;29;20659;-66
2023/07/15 04:54:17;;;;;;;2.47;1.42;;;;;;;;;;4939939;28;20193;-67
2023/07/15 04:56:42;;;;;;;3.58;2.08;;;;;;;;;;4941202;28;20227;-67
2023/07/15 04:59:07;;;;;;;5.05;1.90;;;;;;;;;;4939721;29;20244;-67
2023/07/15 05:01:33;;;;;;;3.53;1.95;;;;;;;;;;4941179;29;21074;-67
2023/07/15 05:03:59;;;;;;;5.68;2.10;;;;;;;;;;4940787;29;20187;-67
2023/07/15 05:06:25;;;;;;;3.72;2.45;;;;;;;;;;4940373;28;20308;-67
2023/07/15 05:08:51;;;;;;;2.92;1.70;;;;;;;;;;4940143;29;20573;-67
2023/07/15 05:11:17;;;;;;;2.22;1.90;;;;;;;;;;4939270;29;20284;-67
2023/07/15 05:13:42;;;;;;;3.78;2.15;;;;;;;;;;4938568;29;20975;-66
2023/07/15 05:16:07;;;;;;;2.83;2.00;;;;;;;;;;4940685;28;20753;-67
2023/07/15 05:18:33;;;;;;;3.20;1.95;;;;;;;;;;4940118;28;20192;-67
2023/07/15 05:20:58;;;;;;;8.68;2.22;;;;;;;;;;4942162;29;20177;-67
2023/07/15 05:23:24;;;;;;;5.97;2.30;;;;;;;;;;4936001;28;20979;-67
2023/07/15 05:25:49;;;;;;;4.63;2.05;;;;;;;;;;4938353;28;20220;-67
2023/07/15 05:28:15;;;;;;;5.18;2.13;;;;;;;;;;4933502;28;21343;-67
2023/07/15 05:30:40;;;;;;;2.95;1.83;;;;;;;;;;4937367;29;20189;-67
2023/07/15 05:33:05;;;;;;;5.65;2.30;;;;;;;;;;4940326;28;20189;-68
2023/07/15 05:35:30;;;;;;;3.53;1.65;;;;;;;;;;4940205;28;20212;-67
2023/07/15 05:37:56;;;;;;;4.00;1.77;;;;;;;;;;4938802;29;20232;-66
2023/07/15 05:40:22;;;;;;;1.83;1.58;;;;;;;;;;4937828;29;20283;-67
2023/07/15 05:42:47;;;;;;;3.60;1.60;;;;;;;;;;4937941;28;20187;-68
2023/07/15 05:45:13;;;;;;;6.13;1.83;;;;;;;;;;4941495;28;21023;-68
2023/07/15 05:47:39;;;;;;;3.25;1.88;;;;;;;;;;4939528;29;20676;-66
2023/07/15 05:50:06;;;;;;;1.92;1.67;;;;;;;;;;4939099;28;20189;-66
2023/07/15 05:52:31;;;;;;;3.65;1.83;;;;;;;;;;4933974;29;20181;-66
2023/07/15 05:54:56;;;;;;;5.15;2.03;;;;;;;;;;4940555;28;20205;-66
2023/07/15 05:57:22;;;;;;;1.98;1.63;;;;;;;;;;4939000;29;20217;-66
2023/07/15 05:59:47;;;;;;;3.38;1.98;;;;;;;;;;4941680;29;20212;-69
2023/07/15 06:02:12;;;;;;;3.30;1.65;;;;;;;;;;4931868;29;20408;-66
2023/07/15 06:04:37;;;;;;;3.30;1.70;;;;;;;;;;4930878;28;20181;-67
2023/07/15 06:07:03;;;;;;;3.33;1.90;;;;;;;;;;4931556;29;20188;-67
2023/07/15 06:09:28;;;;;;;3.55;1.83;;;;;;;;;;4930526;28;20193;-67
2023/07/15 06:11:53;;;;;;;2.20;1.50;;;;;;;;;;4929109;29;20185;-67
2023/07/15 06:14:19;;;;;;;1.80;1.60;;;;;;;;;;4931759;28;20195;-67
2023/07/15 06:16:44;;;;;;;4.22;1.50;;;;;;;;;;4932316;28;20223;-67
2023/07/15 06:19:09;;;;;;;1.90;1.40;;;;;;;;;;4931519;29;20185;-67
2023/07/15 06:21:35;;;;;;;5.28;1.27;;;;;;;;;;4932134;29;20487;-66
2023/07/15 06:24:01;;;;;;;2.80;1.45;;;;;;;;;;4930856;29;20260;-66
2023/07/15 06:26:26;;;;;;;2.17;1.40;;;;;;;;;;4963173;22;20246;-71
2023/07/15 06:28:51;;;;;;;2.72;1.13;;;;;;;;;;4963960;28;20176;-71
2023/07/15 06:31:16;;;;;;;1.50;1.20;;;;;;;;;;4962306;28;20180;-71
2023/07/15 06:33:44;;;;;;;2.63;1.00;;;;;;;;;;4962241;28;20238;-71
2023/07/15 06:36:10;;;;;;;0.82;0.65;;;;;;;;;;4952731;28;20231;-72
2023/07/15 06:38:35;;;;;;;1.48;1.02;;;;;;;;;;4945933;28;20177;-71
2023/07/15 06:41:00;;;;;;;1.00;0.60;;;;;;;;;;4944688;28;20199;-72
2023/07/15 06:43:26;;;;;;;2.30;1.13;;;;;;;;;;4942036;28;20193;-72
2023/07/15 06:45:51;;;;;;;1.17;0.75;;;;;;;;;;4943064;28;20209;-72
2023/07/15 06:48:19;;;;;;;1.00;0.85;;;;;;;;;;4944416;28;20216;-72
2023/07/15 06:50:44;;;;;;;3.33;0.90;;;;;;;;;;4944243;28;20213;-72
2023/07/15 06:53:10;;;;;;;2.58;1.15;;;;;;;;;;4942307;28;20291;-72
2023/07/15 06:55:35;;;;;;;2.60;0.88;;;;;;;;;;4946635;28;20212;-71
2023/07/15 06:58:01;;;;;;;2.50;1.00;;;;;;;;;;4945246;28;20180;-71
2023/07/15 07:00:27;;;;;;;2.92;0.80;;;;;;;;;;4945134;28;20299;-73
2023/07/15 07:02:52;;;;;;;0.98;0.93;;;;;;;;;;4943016;28;20177;-72
2023/07/15 07:05:19;;;;;;;1.65;1.23;;;;;;;;;;4942335;28;20200;-71
2023/07/15 07:07:44;;;;;;;3.47;0.77;;;;;;;;;;4945202;28;20185;-71
2023/07/15 07:10:09;;;;;;;1.05;0.52;;;;;;;;;;4944889;28;20216;-71
2023/07/15 07:12:35;;;;;;;1.98;1.58;;;;;;;;;;4944128;28;20188;-74
2023/07/15 07:15:00;;;;;;;1.30;0.80;;;;;;;;;;4943474;28;20566;-71
2023/07/15 07:17:25;;;;;;;5.28;0.82;;;;;;;;;;4944324;28;20608;-71
2023/07/15 07:19:50;;;;;;;0.73;0.60;;;;;;;;;;4944600;28;20239;-71
2023/07/15 07:22:16;;;;;;;1.50;0.82;;;;;;;;;;4958148;28;21550;-71
2023/07/15 07:24:41;;;;;;;1.45;0.70;;;;;;;;;;4944444;28;20834;-72
2023/07/15 07:27:06;;;;;;;0.60;0.50;;;;;;;;;;4943295;28;20341;-72
2023/07/15 07:29:31;;;;;;;1.25;0.77;;;;;;;;;;4944013;28;20591;-72
2023/07/15 07:31:56;;;;;;;2.80;0.80;;;;;;;;;;4943476;28;21011;-72
2023/07/15 07:34:22;;;;;;;1.10;0.90;;;;;;;;;;4939736;28;20197;-73
2023/07/15 07:36:47;;;;;;;1.90;0.85;;;;;;;;;;4943389;28;20553;-72
2023/07/15 07:39:15;;;;;;;1.30;0.65;;;;;;;;;;4944753;28;20315;-70
2023/07/15 07:41:40;;;;;;;2.25;0.85;;;;;;;;;;4943149;28;20645;-70
2023/07/15 07:44:06;;;;;;;2.78;0.88;;;;;;;;;;4943479;28;20188;-72
2023/07/15 07:46:31;;;;;;;2.05;0.80;;;;;;;;;;4945031;28;20255;-72
2023/07/15 07:48:56;;;;;;;3.38;1.02;;;;;;;;;;4945355;28;20192;-72
2023/07/15 07:51:21;;;;;;;3.30;0.88;;;;;;;;;;4948097;28;20648;-72
2023/07/15 07:53:46;;;;;;;1.43;0.70;;;;;;;;;;4948789;28;20189;-73
2023/07/15 07:56:12;;;;;;;1.38;0.70;;;;;;;;;;4948686;28;20853;-71
2023/07/15 07:58:38;;;;;;;1.40;0.70;;;;;;;;;;4947115;28;20589;-71
2023/07/15 08:01:03;;;;;;;3.17;0.70;;;;;;;;;;4945859;28;20214;-72
2023/07/15 08:03:28;;;;;;;1.02;0.70;;;;;;;;;;4947445;28;20601;-72
2023/07/15 08:05:54;;;;;;;1.65;0.90;;;;;;;;;;4946423;28;20754;-72
2023/07/15 08:08:19;;;;;;;1.85;0.82;;;;;;;;;;4948634;28;20229;-73
2023/07/15 08:10:44;;;;;;;2.25;0.68;;;;;;;;;;4954053;28;20193;-71
2023/07/15 08:13:10;;;;;;;2.63;0.90;;;;;;;;;;4947690;28;20200;-71
2023/07/15 08:15:35;;;;;;;1.02;0.73;;;;;;;;;;4947045;28;20472;-72
2023/07/15 08:18:01;;;;;;;1.63;0.90;;;;;;;;;;4949583;28;20270;-72
2023/07/15 08:20:26;;;;;;;1.48;0.77;;;;;;;;;;4947917;28;20189;-72
2023/07/15 08:22:52;;;;;;;2.15;0.68;;;;;;;;;;4946219;28;20254;-72
2023/07/15 08:25:17;;;;;;;0.75;0.55;;;;;;;;;;4946533;28;20670;-71
2023/07/15 08:27:42;;;;;;;1.52;0.60;;;;;;;;;;4948687;28;20314;-71
2023/07/15 08:30:08;;;;;;;2.03;0.68;;;;;;;;;;4947708;28;20234;-71
2023/07/15 08:32:33;;;;;;;0.85;0.70;;;;;;;;;;4946987;28;20189;-73
2023/07/15 08:34:58;;;;;;;1.43;0.90;;;;;;;;;;4947164;28;20196;-71
2023/07/15 08:37:24;;;;;;;1.08;0.70;;;;;;;;;;4947756;28;20470;-71
2023/07/15 08:39:49;;;;;;;3.17;0.90;;;;;;;;;;4946464;28;20191;-71
2023/07/15 08:42:14;;;;;;;1.10;0.63;;;;;;;;;;4945563;28;20189;-71
2023/07/15 08:44:40;;;;;;;2.20;1.00;;;;;;;;;;4942264;28;20731;-71
2023/07/15 08:47:06;;;;;;;2.47;0.93;;;;;;;;;;4946066;28;20204;-71
2023/07/15 08:49:33;;;;;;;1.67;0.82;;;;;;;;;;4944881;28;20188;-70
2023/07/15 08:51:59;;;;;;;1.30;1.00;;;;;;;;;;4947245;28;20188;-71
2023/07/15 08:54:24;;;;;;;2.47;1.30;;;;;;;;;;4947480;28;20193;-72
2023/07/15 08:56:49;;;;;;;2.25;0.93;;;;;;;;;;4947851;28;20339;-71
2023/07/15 08:59:18;;;;;;;4.40;1.20;;;;;;;;;;4945330;28;20176;-71
2023/07/15 09:01:43;;;;;;;2.50;1.20;;;;;;;;;;4946219;28;20426;-72
2023/07/15 09:04:09;;;;;;;1.27;1.10;;;;;;;;;;4946883;28;21869;-72
2023/07/15 09:06:35;;;;;;;2.20;1.10;;;;;;;;;;4945538;28;20268;-72
2023/07/15 09:09:00;;;;;;;1.30;1.13;;;;;;;;;;4946727;28;20307;-72
2023/07/15 09:11:36;;;;;;;2.50;1.15;;;;;;;;;;4945031;28;20206;-71
2023/07/15 09:14:10;;;;;;;2.13;1.20;;;;;;;;;;4946034;28;20263;-71
2023/07/15 09:16:38;;;;;;;2.67;1.38;;;;;;;;;;4946512;28;20763;-71
2023/07/15 09:19:03;;;;;;;1.60;1.13;;;;;;;;;;4945202;28;20192;-71
2023/07/15 09:21:28;;;;;;;2.83;1.10;;;;;;;;;;4943866;28;20187;-71
2023/07/15 09:23:59;;;;;;;1.30;1.20;;;;;;;;;;4944069;28;20197;-72
2023/07/15 09:26:24;;;;;;;2.58;1.35;;;;;;;;;;4944748;28;20560;-71
2023/07/15 09:28:50;;;;;;;1.93;1.17;;;;;;;;;;4945151;28;20192;-71
2023/07/15 09:31:24;;;;;;;1.77;1.20;;;;;;;;;;4944371;28;20818;-71
2023/07/15 09:33:49;;;;;;;3.70;1.38;;;;;;;;;;4943421;28;20429;-71
2023/07/15 09:36:15;;;;;;;1.60;0.90;;;;;;;;;;4948855;28;20899;-70
2023/07/15 09:38:40;;;;;;;2.97;1.80;;;;;;;;;;4947605;28;20205;-71
2023/07/15 09:41:08;;;;;;;2.70;0.98;;;;;;;;;;4949255;28;21086;-71
2023/07/15 09:43:45;;;;;;;1.33;1.10;;;;;;;;;;4944034;28;20189;-72
2023/07/15 09:46:10;;;;;;;3.63;1.10;;;;;;;;;;4944167;28;20287;-71
2023/07/15 09:48:36;;;;;;;1.75;1.15;;;;;;;;;;4944993;28;20195;-71
2023/07/15 09:51:01;;;;;;;2.42;1.10;;;;;;;;;;4947258;28;20223;-72
2023/07/15 09:53:26;;;;;;;2.33;1.13;;;;;;;;;;4943740;28;20201;-72
2023/07/15 09:55:52;;;;;;;1.55;1.15;;;;;;;;;;4949664;28;20208;-71
2023/07/15 09:58:20;;;;;;;18.92;3.80;;;;;;;;;;4946944;28;20203;-71
2023/07/15 10:00:47;;;;;;;5.72;1.45;;;;;;;;;;4944545;28;20188;-71
2023/07/15 10:03:16;;;;;;;7.78;1.60;;;;;;;;;;4944456;28;20906;-71
2023/07/15 10:05:41;;;;;;;1.63;1.30;;;;;;;;;;4942559;28;20380;-71
2023/07/15 10:08:07;;;;;;;1.73;1.30;;;;;;;;;;4946076;28;20192;-71
2023/07/15 10:10:32;;;;;;;3.47;1.25;;;;;;;;;;4948741;28;20283;-72
2023/07/15 10:12:57;;;;;;;3.50;1.40;;;;;;;;;;4949987;28;20211;-73
2023/07/15 10:15:23;;;;;;;3.38;1.40;;;;;;;;;;4949042;28;20295;-73
2023/07/15 10:17:49;;;;;;;1.98;1.30;;;;;;;;;;4950502;28;20208;-73
2023/07/15 10:20:14;;;;;;;2.55;1.33;;;;;;;;;;4949868;28;20278;-73
2023/07/15 10:22:40;;;;;;;1.15;1.00;;;;;;;;;;4951359;28;21551;-72
2023/07/15 10:25:10;;;;;;;3.90;1.20;;;;;;;;;;4950678;28;20569;-72
2023/07/15 10:27:35;;;;;;;2.80;1.40;;;;;;;;;;4946512;28;20199;-73
2023/07/15 10:30:19;;;;;;;1.15;0.93;;;;;;;;;;4950845;28;20185;-73
2023/07/15 10:33:08;;;;;;;1.60;1.33;;;;;;;;;;4950009;28;20193;-73
2023/07/15 10:35:34;;;;;;;2.35;1.15;;;;;;;;;;4949539;28;20567;-74
2023/07/15 10:38:18;;;;;;;2.67;1.00;;;;;;;;;;4948241;28;21412;-74
2023/07/15 10:40:46;;;;;;;1.95;1.42;;;;;;;;;;4950133;28;20181;-73
2023/07/15 10:43:11;;;;;;;2.15;1.10;;;;;;;;;;4947802;28;20271;-74
2023/07/15 10:45:47;;;;;;;1.63;0.97;;;;;;;;;;4948952;28;20810;-74
2023/07/15 10:48:12;;;;;;;2.08;1.20;;;;;;;;;;4949311;28;20446;-72
2023/07/15 10:50:38;;;;;;;3.05;1.50;;;;;;;;;;4946436;28;20191;-73
2023/07/15 10:53:22;;;;;;;2.75;1.05;;;;;;;;;;4948600;28;20228;-72
2023/07/15 10:55:54;;;;;;;2.15;1.35;;;;;;;;;;4948801;28;20266;-73
2023/07/15 10:58:19;;;;;;;2.03;1.42;;;;;;;;;;4928386;28;20212;-73
2023/07/15 11:00:45;;;;;;;3.05;1.40;;;;;;;;;;4933038;28;20246;-73
2023/07/15 11:03:10;;;;;;;2.65;1.35;;;;;;;;;;4931690;28;20192;-73
2023/07/15 11:05:36;;;;;;;1.52;1.30;;;;;;;;;;4929994;28;20583;-73
2023/07/15 11:08:04;;;;;;;2.10;1.10;;;;;;;;;;4929360;28;20199;-73
2023/07/15 11:10:33;;;;;;;2.92;1.40;;;;;;;;;;4931594;28;20220;-74
2023/07/15 11:13:09;;;;;;;2.95;1.30;;;;;;;;;;4931329;28;20188;-73
2023/07/15 11:15:35;;;;;;;4.90;1.65;;;;;;;;;;4932696;28;20894;-73
2023/07/15 11:18:01;;;;;;;2.90;1.20;;;;;;;;;;4931587;28;20180;-74
2023/07/15 11:20:26;;;;;;;3.67;1.40;;;;;;;;;;4931496;28;20768;-74
2023/07/15 11:22:52;;;;;;;3.50;1.77;;;;;;;;;;4931292;28;20531;-72
2023/07/15 11:25:17;;;;;;;5.90;1.33;;;;;;;;;;4930361;28;20236;-72
2023/07/15 11:27:45;;;;;;;2.92;1.33;;;;;;;;;;4933186;28;20221;-73
2023/07/15 11:30:10;;;;;;;2.45;1.40;;;;;;;;;;4933042;28;20193;-73
2023/07/15 11:32:35;;;;;;;3.22;1.20;;;;;;;;;;4932678;28;20188;-73
2023/07/15 11:35:09;;;;;;;2.10;0.90;;;;;;;;;;4932987;28;20980;-73
2023/07/15 11:37:41;;;;;;;1.90;1.40;;;;;;;;;;4933225;28;20457;-73
2023/07/15 11:40:06;;;;;;;3.58;1.40;;;;;;;;;;4932398;28;20193;-73
2023/07/15 11:42:34;;;;;;;2.47;1.10;;;;;;;;;;4931189;28;20208;-73
2023/07/15 11:45:00;;;;;;;2.33;1.35;;;;;;;;;;4934075;28;20573;-73
2023/07/15 11:47:25;;;;;;;2.80;1.33;;;;;;;;;;4931338;28;20207;-73
2023/07/15 11:49:50;;;;;;;5.03;1.73;;;;;;;;;;4932558;28;20987;-73
2023/07/15 11:52:20;;;;;;;2.23;1.20;;;;;;;;;;4929316;28;20426;-74
2023/07/15 11:54:45;;;;;;;3.97;1.45;;;;;;;;;;4934270;28;20449;-73
2023/07/15 11:57:11;;;;;;;2.28;1.38;;;;;;;;;;4939253;28;20339;-74
2023/07/15 11:59:36;;;;;;;2.90;1.23;;;;;;;;;;4929628;28;20200;-73
2023/07/15 12:02:04;;;;;;;1.13;1.00;;;;;;;;;;4931005;28;20187;-75
2023/07/15 12:04:29;;;;;;;2.05;1.25;;;;;;;;;;4930636;28;20429;-73
2023/07/15 12:06:55;;;;;;;3.45;1.27;;;;;;;;;;4935420;28;20213;-73
2023/07/15 12:09:21;;;;;;;2.17;1.00;;;;;;;;;;4933029;28;20188;-72
2023/07/15 12:11:47;;;;;;;3.53;1.40;;;;;;;;;;4930888;28;20674;-72
2023/07/15 12:14:14;;;;;;;3.90;1.30;;;;;;;;;;4932303;28;20193;-73
2023/07/15 12:16:40;;;;;;;7.05;1.52;;;;;;;;;;4929019;28;20263;-72
2023/07/15 12:19:07;;;;;;;1.92;1.17;;;;;;;;;;4934125;28;20185;-72
2023/07/15 12:21:32;;;;;;;2.88;1.35;;;;;;;;;;4930826;28;20182;-73
2023/07/15 12:23:57;;;;;;;1.70;1.02;;;;;;;;;;4933272;28;20185;-73
2023/07/15 12:26:23;;;;;;;2.05;1.25;;;;;;;;;;4933977;28;20296;-74
2023/07/15 12:28:48;;;;;;;2.15;1.15;;;;;;;;;;4931709;28;20216;-72
2023/07/15 12:31:14;;;;;;;3.00;1.05;;;;;;;;;;4931346;28;20196;-72
2023/07/15 12:33:40;;;;;;;2.63;1.20;;;;;;;;;;4932708;28;20185;-72
2023/07/15 12:36:05;;;;;;;1.92;1.30;;;;;;;;;;4934400;28;20267;-73
2023/07/15 12:38:30;;;;;;;1.65;1.20;;;;;;;;;;4935533;28;21223;-72
2023/07/15 12:40:56;;;;;;;3.00;1.45;;;;;;;;;;4934011;28;20200;-74
2023/07/15 12:43:23;;;;;;;2.00;1.73;;;;;;;;;;4932947;28;20322;-73
2023/07/15 12:45:48;;;;;;;1.85;1.35;;;;;;;;;;4936439;28;21102;-73
2023/07/15 12:48:14;;;;;;;3.22;1.27;;;;;;;;;;4934460;28;21006;-73
2023/07/15 12:50:39;;;;;;;4.28;1.35;;;;;;;;;;4931006;28;20197;-74
2023/07/15 12:53:04;;;;;;;2.97;1.57;;;;;;;;;;4934202;28;20188;-73
2023/07/15 12:55:29;;;;;;;3.45;1.60;;;;;;;;;;4936754;28;21264;-72
2023/07/15 12:57:55;;;;;;;2.42;1.70;;;;;;;;;;4935298;28;20649;-73
2023/07/15 13:00:21;;;;;;;4.28;2.63;;;;;;;;;;4934181;28;20203;-73
2023/07/15 13:02:46;;;;;;;2.53;1.35;;;;;;;;;;4932191;28;20233;-73
2023/07/15 13:05:12;;;;;;;2.75;1.40;;;;;;;;;;4936426;28;21097;-73
2023/07/15 13:07:37;;;;;;;2.20;1.30;;;;;;;;;;4939560;28;20212;-74
2023/07/15 13:10:02;;;;;;;5.82;1.77;;;;;;;;;;4951939;28;20180;-74
2023/07/15 13:12:27;;;;;;;2.40;1.40;;;;;;;;;;4949358;28;21077;-74
2023/07/15 13:14:53;;;;;;;2.60;1.10;;;;;;;;;;4948919;28;20185;-73
2023/07/15 13:17:18;;;;;;;1.83;1.48;;;;;;;;;;4950044;28;20278;-73
2023/07/15 13:19:44;;;;;;;3.33;1.70;;;;;;;;;;4951822;28;20567;-73
2023/07/15 13:22:09;;;;;;;1.30;1.20;;;;;;;;;;4949205;28;20449;-73
2023/07/15 13:24:34;;;;;;;1.65;1.23;;;;;;;;;;4940739;28;20298;-73
2023/07/15 13:26:59;;;;;;;2.08;1.23;;;;;;;;;;4935038;28;20634;-73
2023/07/15 13:29:25;;;;;;;2.83;1.50;;;;;;;;;;4934168;28;21133;-73
2023/07/15 13:31:50;;;;;;;2.40;1.48;;;;;;;;;;4932606;28;20189;-73
2023/07/15 13:34:15;;;;;;;6.07;1.50;;;;;;;;;;4934423;28;20200;-73
2023/07/15 13:36:42;;;;;;;4.88;1.38;;;;;;;;;;4931424;28;20210;-73
2023/07/15 13:39:07;;;;;;;3.67;1.10;;;;;;;;;;4935211;28;20658;-74
2023/07/15 13:41:32;;;;;;;1.10;0.98;;;;;;;;;;4931484;28;20180;-74
2023/07/15 13:43:57;;;;;;;2.70;0.90;;;;;;;;;;4932840;28;20185;-74
2023/07/15 13:46:23;;;;;;;2.58;1.08;;;;;;;;;;4936114;28;20299;-74
2023/07/15 13:48:48;;;;;;;3.70;1.25;;;;;;;;;;4934854;28;20280;-74
2023/07/15 13:51:13;;;;;;;2.95;0.90;;;;;;;;;;4934255;28;20962;-74
2023/07/15 13:53:38;;;;;;;1.85;0.98;;;;;;;;;;4932162;28;20238;-74
2023/07/15 13:56:04;;;;;;;1.48;1.05;;;;;;;;;;4935431;28;21262;-74
2023/07/15 13:58:29;;;;;;;2.88;1.17;;;;;;;;;;4931727;28;20189;-75
2023/07/15 14:00:54;;;;;;;3.65;1.10;;;;;;;;;;4933004;28;20776;-74
2023/07/15 14:03:19;;;;;;;1.80;1.00;;;;;;;;;;4931191;28;20701;-74
2023/07/15 14:05:44;;;;;;;4.60;1.33;;;;;;;;;;4931258;28;20777;-73
2023/07/15 14:08:10;;;;;;;3.27;1.30;;;;;;;;;;4937312;28;21224;-73
2023/07/15 14:10:35;;;;;;;4.87;1.10;;;;;;;;;;4932899;28;20857;-73
2023/07/15 14:13:00;;;;;;;2.07;1.00;;;;;;;;;;4930396;28;21325;-72
2023/07/15 14:15:25;;;;;;;4.33;1.00;;;;;;;;;;4931303;28;20565;-72
2023/07/15 14:17:51;;;;;;;1.87;0.90;;;;;;;;;;4938660;28;20473;-74
2023/07/15 14:20:16;;;;;;;1.70;1.02;;;;;;;;;;4932160;28;20456;-74
2023/07/15 14:22:41;;;;;;;3.60;1.58;;;;;;;;;;4932083;28;20279;-76
2023/07/15 14:25:07;;;;;;;2.50;1.00;;;;;;;;;;4931084;28;20189;-74
2023/07/15 14:27:32;;;;;;;1.38;1.00;;;;;;;;;;4934309;28;20202;-74
2023/07/15 14:29:57;;;;;;;5.00;1.60;;;;;;;;;;4930541;28;20189;-74
2023/07/15 14:32:22;;;;;;;3.70;1.60;;;;;;;;;;4930340;28;20471;-74
2023/07/15 14:34:48;;;;;;;2.08;0.88;;;;;;;;;;4933942;28;20553;-74